KDBQ/DBQ METAR and TAF weather

Enter ICAO airport designator
Station Type Date Time Source
KDBQ METAR 2018/07/16 23:53 UTC NOAA

KDBQ 162353Z 33007KT 10SM CLR 26/14 A3001 RMK AO2 SLP154 T02560144 10278 20256 56003


Station Type Date Time Source
KDBQ Decoded METAR 2018/07/16 23:53 UTC NOAA

DUBUQUE REGIONAL AIRPORT, IA, United States (KDBQ) 42-24N 90-42W 326M
Jul 16, 2018 - 07:53 PM EDT / 2018.07.16 2353 UTC
Wind: from the NNW (330 degrees) at 8 MPH (7 KT):0
Visibility: 10 mile(s):0
Sky conditions: clear
Temperature: 78.1 F (25.6 C)
Dew Point: 57.9 F (14.4 C)
Relative Humidity: 49%
Pressure (altimeter): 30.01 in. Hg (1016 hPa)
Pressure tendency: 0.01 inches (0.3 hPa) lower than three hours ago
ob: KDBQ 162353Z 33007KT 10SM CLR 26/14 A3001 RMK AO2 SLP154 T02560144 10278 20256 56003
cycle: 0

Station Type Date Time Source
KDBQ TAF 2018/07/16 18:24 UTC NOAA

TAF KDBQ 161721Z 1618/1718 34009KT P6SM FEW200
FM170600 31005KT P6SM SKC


Example: see airport list